Newcastle, United Kingdom

4:58 AM BST on June 03, 2015 (GMT +0100)
IENGLAND53 | | Change Station
CLOSE
Current Station
Personal Weather Station
Location: Newcastle East, ENGLAND
Elevation: 97 ft
Nearby Weather Stations

Elev 97 ft 54.98 °N, 1.55 °W | Updated 2 seconds ago

Scattered Clouds
Scattered Clouds
50.4 °F
Feels Like 50.4 °F
N
4.6
Wind Variable Wind from WNW
Gusts 4.6 mph

Today
High -- | Low -- °F
--% Chance of Precip.
Yesterday
High -- | Low -- °F
Precip. -- in
4:33 AM 9:36 PM
Full, 100% visible
Pressure 29.77 in
Visibility 6.2 miles
Clouds Scattered Clouds 1500 ft
Dew Point 44 °F
Humidity 78%
Rainfall 0.00 in
Snow Depth Not available.
UV 0 out of 12
Pollen Not available.
Air Quality Not available.
Flu Activity Not available.
METAR EGNT 030350Z 27009KT 9999 SCT015 09/07 Q1008

More Conditions Fewer Conditions

Pressure 29.77 in
Visibility 6.2 miles
Clouds Scattered Clouds 1500 ft
Dew Point 44 °F
Humidity 78%
Rainfall 0.00 in
Snow Depth Not available.
UV 0 out of 12
Pollen Not available.
Air Quality Not available.
Flu Activity Not available.
METAR EGNT 030350Z 27009KT 9999 SCT015 09/07 Q1008

More Conditions Fewer Conditions

10-Day Weather Forecast

×

Almanac

Astronomy

Jun. 03, 2015 Rise Set
Actual Time
Civil Twilight
Nautical Twilight
Astronomical Twilight
Moon
Length of Visible Light
Length of Day
Tomorrow will be .
, % of the Moon is Illuminated

Today's Extremes

Country Highs Country Lows

Community

WunderPhotos

Upload Photos

1,826,138 photos uploaded!

WunderBlogs® & News

Nearby

Air Quality

  Air Quality AQ Index Pollutant
Not available.

Snow Depth

Station Depth Elevation

Earthquake Activity

City Distance Mag. Time & Date
Minimum magnitude displayed is 2.5.

Coastal Water Temperatures

Place Temperature

Stations

Nearby Weather Stations

Station Location Temp. Windchill Dew Point Humidity Wind Precip. Elev Updated Type